Aeroporto :
LOGIN :

Iscrizione | Disclaimer

   EN    FR    IT 

 










Sommario :    VFR   VFR Marginale   IFR   IFR Intensivo   IFR Molto Intensivo
Visibilità : 
Base nubi : 
>= 8 km
>= 3000ft
5 / 8 km
1000 / 3000 ft
1500m / 5 km
500 / 1000 ft
800 / 1500m
200 / 500 ft
< 800m
< 200 ft
Simboli :   Temporali  Nebbia  Neve Forte  Precipitazioni Forti  Vento > 20 kt
SIGMETs :   Varie  Temporali  Ghiacco  Turbolenza  Onda orograficha  Ceneri Vulcaniche






- Altitudine del aeroporto : 243 ft
- Codice IATA : HOV


ENOV - Ørsta-Volda , Hovden

ULTIMO METAR :
  • 220650Z VRB01KT CAVOK M02/M03 Q1013 RMK WIND 2175FT 13015KT

METARs OBSOLETI :
  • 220620Z VRB03KT CAVOK M03/M04 Q1013 RMK WIND 2175FT 13013KT
  • 220550Z VRB03KT CAVOK M03/M04 Q1013 RMK WIND 2175FT 11012KT
  • 220520Z VRB03KT CAVOK M01/M02 Q1013 RMK WIND 2175FT 13012KT
  • 220450Z VRB02KT CAVOK M01/M02 Q1013 RMK WIND 2175FT 18004KT

TAF N/A



MetMap, La meteo Aeronautica in un colpo d'occhio ! - Copyright ORBIFLY Dicembre 2007 - Disclaimer

ORBIFLY MET'MAP TEAM :

Programmazione e sviluppo : Alexandra Zaïnal
Concezione e sviluppo : Baudouin d'Aumeries
Co-Programmazione e sviluppo : Marc-Olivier Méhu
Supporto tecnico e logistico : Manuel Goepfert
Aiuto per la traduzione : Arnaldo La Scala

Contatto : metmap@orbifly.com




FONTI E CREDITI :

   NOAA